sensor_id;sensor_type;location;lat;lon;timestamp;temperature;humidity
8910;DHT22;4490;49.072;8.804;2023-07-24T00:01:56;19.00;99.90
8910;DHT22;4490;49.072;8.804;2023-07-24T00:04:21;18.90;99.90
8910;DHT22;4490;49.072;8.804;2023-07-24T00:06:47;18.90;99.90
8910;DHT22;4490;49.072;8.804;2023-07-24T00:09:13;18.90;99.90
8910;DHT22;4490;49.072;8.804;2023-07-24T00:11:38;18.90;99.90
8910;DHT22;4490;49.072;8.804;2023-07-24T00:14:04;18.90;99.90
8910;DHT22;4490;49.072;8.804;2023-07-24T00:16:29;18.90;99.90
8910;DHT22;4490;49.072;8.804;2023-07-24T00:18:55;18.90;99.90
8910;DHT22;4490;49.072;8.804;2023-07-24T00:21:21;18.90;99.90
8910;DHT22;4490;49.072;8.804;2023-07-24T00:23:46;18.80;99.90
8910;DHT22;4490;49.072;8.804;2023-07-24T00:26:12;18.90;99.90
8910;DHT22;4490;49.072;8.804;2023-07-24T00:28:37;18.90;99.90
8910;DHT22;4490;49.072;8.804;2023-07-24T00:31:03;18.80;99.90
8910;DHT22;4490;49.072;8.804;2023-07-24T00:33:28;18.80;99.90
8910;DHT22;4490;49.072;8.804;2023-07-24T00:35:57;18.80;99.90
8910;DHT22;4490;49.072;8.804;2023-07-24T00:38:23;18.80;99.90
8910;DHT22;4490;49.072;8.804;2023-07-24T00:40:49;18.70;99.90
8910;DHT22;4490;49.072;8.804;2023-07-24T00:43:16;18.70;99.90
8910;DHT22;4490;49.072;8.804;2023-07-24T00:45:42;18.70;99.90
8910;DHT22;4490;49.072;8.804;2023-07-24T00:48:09;18.70;99.90
8910;DHT22;4490;49.072;8.804;2023-07-24T00:50:36;18.60;99.90
8910;DHT22;4490;49.072;8.804;2023-07-24T00:53:03;18.60;99.90
8910;DHT22;4490;49.072;8.804;2023-07-24T00:55:29;18.60;99.90
8910;DHT22;4490;49.072;8.804;2023-07-24T00:57:56;18.60;99.90
8910;DHT22;4490;49.072;8.804;2023-07-24T01:00:23;18.60;99.90
8910;DHT22;4490;49.072;8.804;2023-07-24T01:02:48;18.50;99.90
8910;DHT22;4490;49.072;8.804;2023-07-24T01:05:16;18.60;99.90
8910;DHT22;4490;49.072;8.804;2023-07-24T01:07:42;18.50;99.90
8910;DHT22;4490;49.072;8.804;2023-07-24T01:10:08;18.50;99.90
8910;DHT22;4490;49.072;8.804;2023-07-24T01:15:21;18.40;99.90
8910;DHT22;4490;49.072;8.804;2023-07-24T01:20:50;18.40;99.90
8910;DHT22;4490;49.072;8.804;2023-07-24T01:26:01;18.40;99.90
8910;DHT22;4490;49.072;8.804;2023-07-24T01:28:29;18.40;99.90
8910;DHT22;4490;49.072;8.804;2023-07-24T01:30:55;18.40;99.90
8910;DHT22;4490;49.072;8.804;2023-07-24T01:33:21;18.40;99.90
8910;DHT22;4490;49.072;8.804;2023-07-24T01:35:55;18.40;99.90
8910;DHT22;4490;49.072;8.804;2023-07-24T01:38:24;18.40;99.90
8910;DHT22;4490;49.072;8.804;2023-07-24T01:40:54;18.40;99.90
8910;DHT22;4490;49.072;8.804;2023-07-24T01:43:21;18.40;99.90
8910;DHT22;4490;49.072;8.804;2023-07-24T01:45:47;18.40;99.90
8910;DHT22;4490;49.072;8.804;2023-07-24T01:48:12;18.40;99.90
8910;DHT22;4490;49.072;8.804;2023-07-24T01:50:38;18.50;99.90
8910;DHT22;4490;49.072;8.804;2023-07-24T01:53:03;18.50;99.90
8910;DHT22;4490;49.072;8.804;2023-07-24T01:55:29;18.50;99.90
8910;DHT22;4490;49.072;8.804;2023-07-24T01:57:54;18.50;99.90
8910;DHT22;4490;49.072;8.804;2023-07-24T02:00:20;18.50;99.90
8910;DHT22;4490;49.072;8.804;2023-07-24T02:02:46;18.50;99.90
8910;DHT22;4490;49.072;8.804;2023-07-24T02:05:12;18.50;99.90
8910;DHT22;4490;49.072;8.804;2023-07-24T02:07:37;18.50;99.90
8910;DHT22;4490;49.072;8.804;2023-07-24T02:10:03;18.50;99.90
8910;DHT22;4490;49.072;8.804;2023-07-24T02:12:29;18.50;99.90
8910;DHT22;4490;49.072;8.804;2023-07-24T02:14:54;18.50;99.90
8910;DHT22;4490;49.072;8.804;2023-07-24T02:17:20;18.50;99.90
8910;DHT22;4490;49.072;8.804;2023-07-24T02:19:46;18.50;99.90
8910;DHT22;4490;49.072;8.804;2023-07-24T02:22:12;18.40;99.90
8910;DHT22;4490;49.072;8.804;2023-07-24T02:24:37;18.40;99.90
8910;DHT22;4490;49.072;8.804;2023-07-24T02:27:05;18.40;99.90
8910;DHT22;4490;49.072;8.804;2023-07-24T02:29:30;18.30;99.90
8910;DHT22;4490;49.072;8.804;2023-07-24T02:31:58;18.40;99.90
8910;DHT22;4490;49.072;8.804;2023-07-24T02:34:24;18.30;99.90
8910;DHT22;4490;49.072;8.804;2023-07-24T02:36:55;18.30;99.90
8910;DHT22;4490;49.072;8.804;2023-07-24T02:39:21;18.30;99.90
8910;DHT22;4490;49.072;8.804;2023-07-24T02:41:49;18.30;99.90
8910;DHT22;4490;49.072;8.804;2023-07-24T02:44:15;18.30;99.90
8910;DHT22;4490;49.072;8.804;2023-07-24T02:46:41;18.30;99.90
8910;DHT22;4490;49.072;8.804;2023-07-24T02:49:07;18.30;99.90
8910;DHT22;4490;49.072;8.804;2023-07-24T02:51:32;18.30;99.90
8910;DHT22;4490;49.072;8.804;2023-07-24T02:53:58;18.40;99.90
8910;DHT22;4490;49.072;8.804;2023-07-24T02:56:23;18.40;99.90
8910;DHT22;4490;49.072;8.804;2023-07-24T02:58:49;18.40;99.90
8910;DHT22;4490;49.072;8.804;2023-07-24T03:01:15;18.40;99.90
8910;DHT22;4490;49.072;8.804;2023-07-24T03:03:41;18.40;99.90
8910;DHT22;4490;49.072;8.804;2023-07-24T03:06:07;18.40;99.90
8910;DHT22;4490;49.072;8.804;2023-07-24T03:08:32;18.40;99.90
8910;DHT22;4490;49.072;8.804;2023-07-24T03:10:59;18.40;99.90
8910;DHT22;4490;49.072;8.804;2023-07-24T03:13:25;18.50;99.90
8910;DHT22;4490;49.072;8.804;2023-07-24T03:15:57;18.50;99.90
8910;DHT22;4490;49.072;8.804;2023-07-24T03:18:24;18.50;99.90
8910;DHT22;4490;49.072;8.804;2023-07-24T03:20:50;18.50;99.90
8910;DHT22;4490;49.072;8.804;2023-07-24T03:23:16;18.40;99.90
8910;DHT22;4490;49.072;8.804;2023-07-24T03:25:42;18.40;99.90
8910;DHT22;4490;49.072;8.804;2023-07-24T03:28:07;18.40;99.90
8910;DHT22;4490;49.072;8.804;2023-07-24T03:30:33;18.40;99.90
8910;DHT22;4490;49.072;8.804;2023-07-24T03:32:59;18.40;99.90
8910;DHT22;4490;49.072;8.804;2023-07-24T03:35:25;18.30;99.90
8910;DHT22;4490;49.072;8.804;2023-07-24T03:37:50;18.30;99.90
8910;DHT22;4490;49.072;8.804;2023-07-24T03:40:16;18.30;99.90
8910;DHT22;4490;49.072;8.804;2023-07-24T03:42:42;18.30;99.90
8910;DHT22;4490;49.072;8.804;2023-07-24T03:45:08;18.20;99.90
8910;DHT22;4490;49.072;8.804;2023-07-24T03:47:34;18.20;99.90
8910;DHT22;4490;49.072;8.804;2023-07-24T03:49:59;18.20;99.90
8910;DHT22;4490;49.072;8.804;2023-07-24T03:52:25;18.20;99.90
8910;DHT22;4490;49.072;8.804;2023-07-24T03:54:51;18.20;99.90
8910;DHT22;4490;49.072;8.804;2023-07-24T03:57:17;18.20;99.90
8910;DHT22;4490;49.072;8.804;2023-07-24T03:59:43;18.20;99.90
8910;DHT22;4490;49.072;8.804;2023-07-24T04:02:09;18.20;99.90
8910;DHT22;4490;49.072;8.804;2023-07-24T04:04:35;18.20;99.90
8910;DHT22;4490;49.072;8.804;2023-07-24T04:07:00;18.20;99.90
8910;DHT22;4490;49.072;8.804;2023-07-24T04:09:26;18.20;99.90
8910;DHT22;4490;49.072;8.804;2023-07-24T04:11:52;18.30;99.90
8910;DHT22;4490;49.072;8.804;2023-07-24T04:14:17;18.30;99.90
8910;DHT22;4490;49.072;8.804;2023-07-24T04:16:43;18.30;99.90
8910;DHT22;4490;49.072;8.804;2023-07-24T04:19:09;18.30;99.90
8910;DHT22;4490;49.072;8.804;2023-07-24T04:21:34;18.30;99.90
8910;DHT22;4490;49.072;8.804;2023-07-24T04:24:00;18.30;99.90
8910;DHT22;4490;49.072;8.804;2023-07-24T04:26:25;18.30;99.90
8910;DHT22;4490;49.072;8.804;2023-07-24T04:28:51;18.30;99.90
8910;DHT22;4490;49.072;8.804;2023-07-24T04:31:16;18.40;99.90
8910;DHT22;4490;49.072;8.804;2023-07-24T04:33:42;18.40;99.90
8910;DHT22;4490;49.072;8.804;2023-07-24T04:36:08;18.40;99.90
8910;DHT22;4490;49.072;8.804;2023-07-24T04:38:33;18.50;99.90
8910;DHT22;4490;49.072;8.804;2023-07-24T04:41:02;18.50;99.90
8910;DHT22;4490;49.072;8.804;2023-07-24T04:43:28;18.50;99.90
8910;DHT22;4490;49.072;8.804;2023-07-24T04:45:54;18.50;99.90
8910;DHT22;4490;49.072;8.804;2023-07-24T04:48:20;18.50;99.90
8910;DHT22;4490;49.072;8.804;2023-07-24T04:50:45;18.50;99.90
8910;DHT22;4490;49.072;8.804;2023-07-24T04:53:11;18.50;99.90
8910;DHT22;4490;49.072;8.804;2023-07-24T04:55:37;18.50;99.90
8910;DHT22;4490;49.072;8.804;2023-07-24T04:58:02;18.60;99.90
8910;DHT22;4490;49.072;8.804;2023-07-24T05:00:28;18.60;99.90
8910;DHT22;4490;49.072;8.804;2023-07-24T05:02:53;18.60;99.90
8910;DHT22;4490;49.072;8.804;2023-07-24T05:05:19;18.70;99.90
8910;DHT22;4490;49.072;8.804;2023-07-24T05:07:45;18.70;99.90
8910;DHT22;4490;49.072;8.804;2023-07-24T05:10:11;18.70;99.90
8910;DHT22;4490;49.072;8.804;2023-07-24T05:12:36;18.70;99.90
8910;DHT22;4490;49.072;8.804;2023-07-24T05:15:02;18.80;99.90
8910;DHT22;4490;49.072;8.804;2023-07-24T05:17:28;18.80;99.90
8910;DHT22;4490;49.072;8.804;2023-07-24T05:19:53;18.80;99.90
8910;DHT22;4490;49.072;8.804;2023-07-24T05:22:19;18.80;99.90
8910;DHT22;4490;49.072;8.804;2023-07-24T05:24:44;18.80;99.90
8910;DHT22;4490;49.072;8.804;2023-07-24T05:27:10;18.90;99.90
8910;DHT22;4490;49.072;8.804;2023-07-24T05:29:37;18.90;99.90
8910;DHT22;4490;49.072;8.804;2023-07-24T05:32:03;18.90;99.90
8910;DHT22;4490;49.072;8.804;2023-07-24T05:34:29;18.90;99.90
8910;DHT22;4490;49.072;8.804;2023-07-24T05:36:55;18.90;99.90
8910;DHT22;4490;49.072;8.804;2023-07-24T05:39:20;18.90;99.90
8910;DHT22;4490;49.072;8.804;2023-07-24T05:41:47;18.90;99.90
8910;DHT22;4490;49.072;8.804;2023-07-24T05:44:13;19.00;99.90
8910;DHT22;4490;49.072;8.804;2023-07-24T05:46:39;19.00;99.90
8910;DHT22;4490;49.072;8.804;2023-07-24T05:49:04;19.00;99.90
8910;DHT22;4490;49.072;8.804;2023-07-24T05:51:30;19.00;99.90
8910;DHT22;4490;49.072;8.804;2023-07-24T05:53:55;19.10;99.90
8910;DHT22;4490;49.072;8.804;2023-07-24T05:56:21;19.20;99.90
8910;DHT22;4490;49.072;8.804;2023-07-24T05:58:46;19.20;99.90
8910;DHT22;4490;49.072;8.804;2023-07-24T06:01:12;19.30;99.90
8910;DHT22;4490;49.072;8.804;2023-07-24T06:03:38;19.30;99.90
8910;DHT22;4490;49.072;8.804;2023-07-24T06:06:04;19.30;99.90
8910;DHT22;4490;49.072;8.804;2023-07-24T06:08:30;19.40;99.90
8910;DHT22;4490;49.072;8.804;2023-07-24T06:10:55;19.40;99.90
8910;DHT22;4490;49.072;8.804;2023-07-24T06:13:21;19.40;99.90
8910;DHT22;4490;49.072;8.804;2023-07-24T06:15:47;19.50;99.90
8910;DHT22;4490;49.072;8.804;2023-07-24T06:18:14;19.50;99.90
8910;DHT22;4490;49.072;8.804;2023-07-24T06:20:39;19.60;99.90
8910;DHT22;4490;49.072;8.804;2023-07-24T06:23:05;19.60;99.90
8910;DHT22;4490;49.072;8.804;2023-07-24T06:25:31;19.70;99.90
8910;DHT22;4490;49.072;8.804;2023-07-24T06:27:57;19.70;99.90
8910;DHT22;4490;49.072;8.804;2023-07-24T06:30:23;19.70;99.90
8910;DHT22;4490;49.072;8.804;2023-07-24T06:32:49;19.80;99.90
8910;DHT22;4490;49.072;8.804;2023-07-24T06:35:15;19.90;99.90
8910;DHT22;4490;49.072;8.804;2023-07-24T06:37:40;19.90;99.90
8910;DHT22;4490;49.072;8.804;2023-07-24T06:40:07;19.90;99.90
8910;DHT22;4490;49.072;8.804;2023-07-24T06:42:33;19.90;99.90
8910;DHT22;4490;49.072;8.804;2023-07-24T06:44:59;19.90;99.90
8910;DHT22;4490;49.072;8.804;2023-07-24T06:47:25;20.00;99.90
8910;DHT22;4490;49.072;8.804;2023-07-24T06:49:50;20.00;99.90
8910;DHT22;4490;49.072;8.804;2023-07-24T06:52:16;20.00;99.90
8910;DHT22;4490;49.072;8.804;2023-07-24T06:54:42;20.10;99.90
8910;DHT22;4490;49.072;8.804;2023-07-24T06:57:07;20.10;99.90
8910;DHT22;4490;49.072;8.804;2023-07-24T06:59:33;20.10;99.90
8910;DHT22;4490;49.072;8.804;2023-07-24T07:01:58;20.10;99.90
8910;DHT22;4490;49.072;8.804;2023-07-24T07:04:24;20.10;99.90
8910;DHT22;4490;49.072;8.804;2023-07-24T07:06:50;20.10;99.90
8910;DHT22;4490;49.072;8.804;2023-07-24T07:09:15;20.10;99.90
8910;DHT22;4490;49.072;8.804;2023-07-24T07:11:41;20.10;99.90
8910;DHT22;4490;49.072;8.804;2023-07-24T07:14:08;20.10;99.90
8910;DHT22;4490;49.072;8.804;2023-07-24T07:16:34;20.20;99.90
8910;DHT22;4490;49.072;8.804;2023-07-24T07:19:00;20.30;99.90
8910;DHT22;4490;49.072;8.804;2023-07-24T07:21:25;20.30;99.90
8910;DHT22;4490;49.072;8.804;2023-07-24T07:23:51;20.40;99.90
8910;DHT22;4490;49.072;8.804;2023-07-24T07:26:17;20.40;99.90
8910;DHT22;4490;49.072;8.804;2023-07-24T07:28:42;20.50;99.90
8910;DHT22;4490;49.072;8.804;2023-07-24T07:31:10;20.50;99.90
8910;DHT22;4490;49.072;8.804;2023-07-24T07:33:36;20.50;99.90
8910;DHT22;4490;49.072;8.804;2023-07-24T07:36:03;20.60;99.90
8910;DHT22;4490;49.072;8.804;2023-07-24T07:38:30;20.60;99.90
8910;DHT22;4490;49.072;8.804;2023-07-24T07:40:55;20.60;99.90
8910;DHT22;4490;49.072;8.804;2023-07-24T07:43:21;20.60;99.90
8910;DHT22;4490;49.072;8.804;2023-07-24T07:45:47;20.60;99.90
8910;DHT22;4490;49.072;8.804;2023-07-24T07:48:13;20.50;99.90
8910;DHT22;4490;49.072;8.804;2023-07-24T07:50:39;20.50;99.90
8910;DHT22;4490;49.072;8.804;2023-07-24T07:53:04;20.50;99.90
8910;DHT22;4490;49.072;8.804;2023-07-24T07:55:30;20.50;99.90
8910;DHT22;4490;49.072;8.804;2023-07-24T07:57:55;20.50;99.90
8910;DHT22;4490;49.072;8.804;2023-07-24T08:00:21;20.50;99.90
8910;DHT22;4490;49.072;8.804;2023-07-24T08:02:47;20.50;99.90
8910;DHT22;4490;49.072;8.804;2023-07-24T08:05:13;20.50;99.90
8910;DHT22;4490;49.072;8.804;2023-07-24T08:07:38;20.50;99.90
8910;DHT22;4490;49.072;8.804;2023-07-24T08:10:04;20.50;99.90
8910;DHT22;4490;49.072;8.804;2023-07-24T08:12:30;20.60;99.90
8910;DHT22;4490;49.072;8.804;2023-07-24T08:14:56;20.60;99.90
8910;DHT22;4490;49.072;8.804;2023-07-24T08:17:22;20.60;99.90
8910;DHT22;4490;49.072;8.804;2023-07-24T08:19:47;20.60;99.90
8910;DHT22;4490;49.072;8.804;2023-07-24T08:22:13;20.60;99.90
8910;DHT22;4490;49.072;8.804;2023-07-24T08:24:38;20.70;99.90
8910;DHT22;4490;49.072;8.804;2023-07-24T08:27:04;20.70;99.90
8910;DHT22;4490;49.072;8.804;2023-07-24T08:29:30;20.70;99.90
8910;DHT22;4490;49.072;8.804;2023-07-24T08:31:55;20.70;99.90
8910;DHT22;4490;49.072;8.804;2023-07-24T08:34:22;20.70;99.90
8910;DHT22;4490;49.072;8.804;2023-07-24T08:36:48;20.70;99.90
8910;DHT22;4490;49.072;8.804;2023-07-24T08:39:13;20.70;99.90
8910;DHT22;4490;49.072;8.804;2023-07-24T08:41:39;20.70;99.90
8910;DHT22;4490;49.072;8.804;2023-07-24T08:44:07;20.70;99.90
8910;DHT22;4490;49.072;8.804;2023-07-24T08:46:37;20.80;99.90
8910;DHT22;4490;49.072;8.804;2023-07-24T08:49:04;20.80;99.90
8910;DHT22;4490;49.072;8.804;2023-07-24T08:51:31;20.80;99.90
8910;DHT22;4490;49.072;8.804;2023-07-24T08:53:57;20.90;99.90
8910;DHT22;4490;49.072;8.804;2023-07-24T08:56:23;20.90;99.90
8910;DHT22;4490;49.072;8.804;2023-07-24T08:58:49;20.90;99.90
8910;DHT22;4490;49.072;8.804;2023-07-24T09:01:14;21.00;99.90
8910;DHT22;4490;49.072;8.804;2023-07-24T09:03:40;21.00;99.90
8910;DHT22;4490;49.072;8.804;2023-07-24T09:06:06;21.10;99.90
8910;DHT22;4490;49.072;8.804;2023-07-24T09:08:38;21.20;99.90
8910;DHT22;4490;49.072;8.804;2023-07-24T09:11:05;21.20;99.90
8910;DHT22;4490;49.072;8.804;2023-07-24T09:13:35;21.30;99.90
8910;DHT22;4490;49.072;8.804;2023-07-24T09:16:01;21.40;99.90
8910;DHT22;4490;49.072;8.804;2023-07-24T09:18:27;21.50;99.90
8910;DHT22;4490;49.072;8.804;2023-07-24T09:20:52;21.50;99.90
8910;DHT22;4490;49.072;8.804;2023-07-24T09:23:27;21.60;99.90
8910;DHT22;4490;49.072;8.804;2023-07-24T09:25:56;21.70;99.90
8910;DHT22;4490;49.072;8.804;2023-07-24T09:28:21;21.90;99.90
8910;DHT22;4490;49.072;8.804;2023-07-24T09:30:56;22.00;99.90
8910;DHT22;4490;49.072;8.804;2023-07-24T09:33:23;22.20;99.90
8910;DHT22;4490;49.072;8.804;2023-07-24T09:36:01;22.30;99.90
8910;DHT22;4490;49.072;8.804;2023-07-24T09:38:27;22.60;99.90
8910;DHT22;4490;49.072;8.804;2023-07-24T09:40:56;22.70;99.90
8910;DHT22;4490;49.072;8.804;2023-07-24T09:43:26;22.90;99.90
8910;DHT22;4490;49.072;8.804;2023-07-24T09:45:53;23.00;99.90
8910;DHT22;4490;49.072;8.804;2023-07-24T09:48:21;23.10;99.90
8910;DHT22;4490;49.072;8.804;2023-07-24T09:50:49;23.10;99.90
8910;DHT22;4490;49.072;8.804;2023-07-24T09:55:54;23.10;99.90
8910;DHT22;4490;49.072;8.804;2023-07-24T09:58:21;23.10;99.90
8910;DHT22;4490;49.072;8.804;2023-07-24T10:00:53;23.00;99.90
8910;DHT22;4490;49.072;8.804;2023-07-24T10:03:19;23.00;99.90
8910;DHT22;4490;49.072;8.804;2023-07-24T10:05:47;23.00;99.90
8910;DHT22;4490;49.072;8.804;2023-07-24T10:08:18;22.90;99.90
8910;DHT22;4490;49.072;8.804;2023-07-24T10:10:44;22.90;99.90
8910;DHT22;4490;49.072;8.804;2023-07-24T10:13:12;22.80;99.90
8910;DHT22;4490;49.072;8.804;2023-07-24T10:15:41;22.80;99.90
8910;DHT22;4490;49.072;8.804;2023-07-24T10:18:08;22.70;99.90
8910;DHT22;4490;49.072;8.804;2023-07-24T10:20:40;22.70;99.90
8910;DHT22;4490;49.072;8.804;2023-07-24T10:23:11;22.60;99.90
8910;DHT22;4490;49.072;8.804;2023-07-24T10:25:40;22.60;99.90
8910;DHT22;4490;49.072;8.804;2023-07-24T10:28:10;22.50;99.90
8910;DHT22;4490;49.072;8.804;2023-07-24T10:30:40;22.40;99.90
8910;DHT22;4490;49.072;8.804;2023-07-24T10:35:49;22.40;99.90
8910;DHT22;4490;49.072;8.804;2023-07-24T10:38:16;22.40;99.90
8910;DHT22;4490;49.072;8.804;2023-07-24T10:40:47;22.30;99.90
8910;DHT22;4490;49.072;8.804;2023-07-24T10:43:19;22.30;99.90
8910;DHT22;4490;49.072;8.804;2023-07-24T10:45:53;22.20;99.90
8910;DHT22;4490;49.072;8.804;2023-07-24T10:48:21;22.20;99.90
8910;DHT22;4490;49.072;8.804;2023-07-24T10:50:48;22.20;99.90
8910;DHT22;4490;49.072;8.804;2023-07-24T10:53:22;22.20;99.90
8910;DHT22;4490;49.072;8.804;2023-07-24T10:55:49;22.10;99.90
8910;DHT22;4490;49.072;8.804;2023-07-24T10:58:19;22.10;99.90
8910;DHT22;4490;49.072;8.804;2023-07-24T11:00:45;22.10;99.90
8910;DHT22;4490;49.072;8.804;2023-07-24T11:03:14;22.00;99.90
8910;DHT22;4490;49.072;8.804;2023-07-24T11:05:43;22.00;99.90
8910;DHT22;4490;49.072;8.804;2023-07-24T11:08:13;22.00;99.90
8910;DHT22;4490;49.072;8.804;2023-07-24T11:10:54;22.00;99.90
8910;DHT22;4490;49.072;8.804;2023-07-24T11:13:22;22.00;99.90
8910;DHT22;4490;49.072;8.804;2023-07-24T11:15:49;21.90;99.90
8910;DHT22;4490;49.072;8.804;2023-07-24T11:18:15;21.90;99.90
8910;DHT22;4490;49.072;8.804;2023-07-24T11:20:47;21.90;99.90
8910;DHT22;4490;49.072;8.804;2023-07-24T11:23:13;21.90;99.90
8910;DHT22;4490;49.072;8.804;2023-07-24T11:25:40;22.00;99.90
8910;DHT22;4490;49.072;8.804;2023-07-24T11:28:06;22.00;99.90
8910;DHT22;4490;49.072;8.804;2023-07-24T11:30:33;22.00;99.90
8910;DHT22;4490;49.072;8.804;2023-07-24T11:33:00;22.00;99.90
8910;DHT22;4490;49.072;8.804;2023-07-24T11:35:27;22.00;99.90
8910;DHT22;4490;49.072;8.804;2023-07-24T11:37:52;22.10;99.90
8910;DHT22;4490;49.072;8.804;2023-07-24T11:40:18;22.10;99.90
8910;DHT22;4490;49.072;8.804;2023-07-24T11:42:48;22.10;99.90
8910;DHT22;4490;49.072;8.804;2023-07-24T11:45:15;22.20;99.90
8910;DHT22;4490;49.072;8.804;2023-07-24T11:47:47;22.30;99.90
8910;DHT22;4490;49.072;8.804;2023-07-24T11:50:15;22.40;99.90
8910;DHT22;4490;49.072;8.804;2023-07-24T11:52:50;22.60;99.90
8910;DHT22;4490;49.072;8.804;2023-07-24T11:55:18;22.70;99.90
8910;DHT22;4490;49.072;8.804;2023-07-24T11:57:55;22.80;99.90
8910;DHT22;4490;49.072;8.804;2023-07-24T12:00:22;22.90;99.90
8910;DHT22;4490;49.072;8.804;2023-07-24T12:02:48;22.90;99.90
8910;DHT22;4490;49.072;8.804;2023-07-24T12:05:14;22.90;99.90
8910;DHT22;4490;49.072;8.804;2023-07-24T12:07:43;22.90;99.90
8910;DHT22;4490;49.072;8.804;2023-07-24T12:10:13;23.00;99.90
8910;DHT22;4490;49.072;8.804;2023-07-24T12:12:43;23.00;99.90
8910;DHT22;4490;49.072;8.804;2023-07-24T12:15:09;23.00;99.90
8910;DHT22;4490;49.072;8.804;2023-07-24T12:17:35;23.00;99.90
8910;DHT22;4490;49.072;8.804;2023-07-24T12:20:01;23.00;99.90
8910;DHT22;4490;49.072;8.804;2023-07-24T12:22:27;23.10;99.90
8910;DHT22;4490;49.072;8.804;2023-07-24T12:24:53;23.10;99.90
8910;DHT22;4490;49.072;8.804;2023-07-24T12:27:18;23.10;99.90
8910;DHT22;4490;49.072;8.804;2023-07-24T12:29:44;23.20;99.90
8910;DHT22;4490;49.072;8.804;2023-07-24T12:32:10;23.10;99.90
8910;DHT22;4490;49.072;8.804;2023-07-24T12:34:35;23.10;99.90
8910;DHT22;4490;49.072;8.804;2023-07-24T12:37:01;23.10;99.90
8910;DHT22;4490;49.072;8.804;2023-07-24T12:39:26;23.10;99.90
8910;DHT22;4490;49.072;8.804;2023-07-24T12:41:52;23.10;99.90
8910;DHT22;4490;49.072;8.804;2023-07-24T12:44:17;23.10;99.90
8910;DHT22;4490;49.072;8.804;2023-07-24T12:46:43;23.10;99.90
8910;DHT22;4490;49.072;8.804;2023-07-24T12:49:09;23.20;99.90
8910;DHT22;4490;49.072;8.804;2023-07-24T12:51:34;23.30;99.90
8910;DHT22;4490;49.072;8.804;2023-07-24T12:54:00;23.50;99.90
8910;DHT22;4490;49.072;8.804;2023-07-24T12:56:25;23.70;99.90
8910;DHT22;4490;49.072;8.804;2023-07-24T12:58:51;23.90;99.90
8910;DHT22;4490;49.072;8.804;2023-07-24T13:01:16;24.20;99.90
8910;DHT22;4490;49.072;8.804;2023-07-24T13:03:42;24.60;99.90
8910;DHT22;4490;49.072;8.804;2023-07-24T13:06:07;24.80;99.90
8910;DHT22;4490;49.072;8.804;2023-07-24T13:08:33;25.00;99.90
8910;DHT22;4490;49.072;8.804;2023-07-24T13:10:59;25.10;98.40
8910;DHT22;4490;49.072;8.804;2023-07-24T13:13:24;25.20;95.50
8910;DHT22;4490;49.072;8.804;2023-07-24T13:15:50;25.20;93.30
8910;DHT22;4490;49.072;8.804;2023-07-24T13:18:17;25.10;92.90
8910;DHT22;4490;49.072;8.804;2023-07-24T13:20:42;25.00;92.70
8910;DHT22;4490;49.072;8.804;2023-07-24T13:23:08;24.90;91.60
8910;DHT22;4490;49.072;8.804;2023-07-24T13:25:34;24.80;91.00
8910;DHT22;4490;49.072;8.804;2023-07-24T13:28:01;24.70;90.80
8910;DHT22;4490;49.072;8.804;2023-07-24T13:30:28;24.60;91.00
8910;DHT22;4490;49.072;8.804;2023-07-24T13:32:53;24.60;90.60
8910;DHT22;4490;49.072;8.804;2023-07-24T13:35:19;24.60;90.70
8910;DHT22;4490;49.072;8.804;2023-07-24T13:37:44;24.60;90.60
8910;DHT22;4490;49.072;8.804;2023-07-24T13:40:10;24.60;90.40
8910;DHT22;4490;49.072;8.804;2023-07-24T13:42:36;24.60;90.40
8910;DHT22;4490;49.072;8.804;2023-07-24T13:45:01;24.60;90.90
8910;DHT22;4490;49.072;8.804;2023-07-24T13:47:27;24.70;91.10
8910;DHT22;4490;49.072;8.804;2023-07-24T13:49:53;24.90;90.70
8910;DHT22;4490;49.072;8.804;2023-07-24T13:52:18;25.10;90.40
8910;DHT22;4490;49.072;8.804;2023-07-24T13:54:44;25.30;90.00
8910;DHT22;4490;49.072;8.804;2023-07-24T13:57:09;25.50;88.70
8910;DHT22;4490;49.072;8.804;2023-07-24T13:59:36;25.50;87.30
8910;DHT22;4490;49.072;8.804;2023-07-24T14:02:05;25.50;85.70
8910;DHT22;4490;49.072;8.804;2023-07-24T14:04:31;25.50;85.30
8910;DHT22;4490;49.072;8.804;2023-07-24T14:06:56;25.50;85.40
8910;DHT22;4490;49.072;8.804;2023-07-24T14:09:22;25.50;84.80
8910;DHT22;4490;49.072;8.804;2023-07-24T14:11:48;25.60;84.20
8910;DHT22;4490;49.072;8.804;2023-07-24T14:14:13;25.70;83.40
8910;DHT22;4490;49.072;8.804;2023-07-24T14:16:39;25.80;83.10
8910;DHT22;4490;49.072;8.804;2023-07-24T14:19:04;25.90;82.70
8910;DHT22;4490;49.072;8.804;2023-07-24T14:21:30;26.00;81.60
8910;DHT22;4490;49.072;8.804;2023-07-24T14:23:56;26.20;80.60
8910;DHT22;4490;49.072;8.804;2023-07-24T14:26:21;26.30;81.50
8910;DHT22;4490;49.072;8.804;2023-07-24T14:28:48;26.30;80.60
8910;DHT22;4490;49.072;8.804;2023-07-24T14:31:14;26.30;79.20
8910;DHT22;4490;49.072;8.804;2023-07-24T14:33:39;26.40;79.80
8910;DHT22;4490;49.072;8.804;2023-07-24T14:36:05;26.50;80.30
8910;DHT22;4490;49.072;8.804;2023-07-24T14:38:31;26.50;79.00
8910;DHT22;4490;49.072;8.804;2023-07-24T14:40:56;26.60;78.30
8910;DHT22;4490;49.072;8.804;2023-07-24T14:43:22;26.70;78.80
8910;DHT22;4490;49.072;8.804;2023-07-24T14:45:47;26.80;78.20
8910;DHT22;4490;49.072;8.804;2023-07-24T14:48:13;26.90;77.20
8910;DHT22;4490;49.072;8.804;2023-07-24T14:50:40;27.00;76.70
8910;DHT22;4490;49.072;8.804;2023-07-24T14:53:05;27.00;76.50
8910;DHT22;4490;49.072;8.804;2023-07-24T14:55:31;27.00;76.50
8910;DHT22;4490;49.072;8.804;2023-07-24T14:57:57;27.10;76.40
8910;DHT22;4490;49.072;8.804;2023-07-24T15:00:22;27.10;76.40
8910;DHT22;4490;49.072;8.804;2023-07-24T15:02:48;27.20;75.60
8910;DHT22;4490;49.072;8.804;2023-07-24T15:05:13;27.20;75.20
8910;DHT22;4490;49.072;8.804;2023-07-24T15:07:39;27.10;75.00
8910;DHT22;4490;49.072;8.804;2023-07-24T15:10:05;27.00;74.70
8910;DHT22;4490;49.072;8.804;2023-07-24T15:12:31;26.80;74.40
8910;DHT22;4490;49.072;8.804;2023-07-24T15:14:56;26.60;75.10
8910;DHT22;4490;49.072;8.804;2023-07-24T15:17:22;26.50;76.00
8910;DHT22;4490;49.072;8.804;2023-07-24T15:19:48;26.40;75.40
8910;DHT22;4490;49.072;8.804;2023-07-24T15:22:13;26.30;75.90
8910;DHT22;4490;49.072;8.804;2023-07-24T15:24:40;26.10;76.40
8910;DHT22;4490;49.072;8.804;2023-07-24T15:27:09;26.00;76.60
8910;DHT22;4490;49.072;8.804;2023-07-24T15:29:35;25.90;76.90
8910;DHT22;4490;49.072;8.804;2023-07-24T15:32:01;25.80;80.20
8910;DHT22;4490;49.072;8.804;2023-07-24T15:34:27;25.40;84.10
8910;DHT22;4490;49.072;8.804;2023-07-24T15:36:52;25.10;85.90
8910;DHT22;4490;49.072;8.804;2023-07-24T15:39:18;24.70;87.60
8910;DHT22;4490;49.072;8.804;2023-07-24T15:41:44;24.40;89.80
8910;DHT22;4490;49.072;8.804;2023-07-24T15:44:10;24.10;91.50
8910;DHT22;4490;49.072;8.804;2023-07-24T15:46:35;23.90;93.50
8910;DHT22;4490;49.072;8.804;2023-07-24T15:49:01;23.70;97.40
8910;DHT22;4490;49.072;8.804;2023-07-24T15:51:27;23.50;99.90
8910;DHT22;4490;49.072;8.804;2023-07-24T15:53:53;23.30;99.90
8910;DHT22;4490;49.072;8.804;2023-07-24T15:56:19;23.10;99.90
8910;DHT22;4490;49.072;8.804;2023-07-24T15:58:47;23.00;99.90
8910;DHT22;4490;49.072;8.804;2023-07-24T16:01:12;22.90;99.90
8910;DHT22;4490;49.072;8.804;2023-07-24T16:03:38;22.70;99.90
8910;DHT22;4490;49.072;8.804;2023-07-24T16:06:04;22.70;99.90
8910;DHT22;4490;49.072;8.804;2023-07-24T16:08:30;22.60;99.90
8910;DHT22;4490;49.072;8.804;2023-07-24T16:10:57;22.60;99.90